createdAt,value
2023-01-13T06:33:25.915Z,31.70
2023-01-13T06:35:57.342Z,33.00
2023-01-13T06:38:27.898Z,32.25
2023-01-13T06:40:55.122Z,39.47
2023-01-13T06:43:22.489Z,33.67
2023-01-13T06:45:52.394Z,30.58
2023-01-13T06:48:23.390Z,33.88
2023-01-13T06:50:50.251Z,32.08
2023-01-13T06:53:17.128Z,30.60
2023-01-13T06:55:44.089Z,28.15
2023-01-13T06:58:11.229Z,26.00
2023-01-13T07:00:38.469Z,28.33
2023-01-13T07:03:07.301Z,25.73
2023-01-13T07:05:36.078Z,25.57
2023-01-13T07:08:02.932Z,28.77
2023-01-13T07:10:30.504Z,29.88
2023-01-13T07:13:00.484Z,26.77
2023-01-13T07:15:27.474Z,34.63
2023-01-13T07:17:54.287Z,26.67
2023-01-13T07:20:21.229Z,25.90
2023-01-13T07:22:53.784Z,30.20
2023-01-13T07:25:20.757Z,32.50
2023-01-13T07:27:47.610Z,27.48
2023-01-13T07:30:14.950Z,32.15
2023-01-13T07:32:41.769Z,30.13
2023-01-13T07:35:08.726Z,29.55
2023-01-13T07:37:38.364Z,27.85
2023-01-13T07:42:34.424Z,28.40
2023-01-13T07:45:01.212Z,29.58
2023-01-13T07:47:28.170Z,28.42
2023-01-13T07:49:55.208Z,29.80
2023-01-13T07:52:22.277Z,30.13
2023-01-13T07:54:49.131Z,29.92
2023-01-13T07:57:17.704Z,31.35
2023-01-13T08:00:02.460Z,33.58
2023-01-13T08:02:31.888Z,32.08
2023-01-13T08:04:58.931Z,25.55
2023-01-13T08:07:28.019Z,27.95
2023-01-13T08:10:01.818Z,29.05
2023-01-13T08:12:34.104Z,30.05
2023-01-13T08:15:07.189Z,25.25
2023-01-13T08:17:34.228Z,25.17
2023-01-13T08:20:01.599Z,28.65
2023-01-13T08:22:42.776Z,27.65
2023-01-13T08:25:13.020Z,23.42
2023-01-13T08:34:22.109Z,18.25
2023-01-13T08:43:13.707Z,15.60
2023-01-13T08:46:12.488Z,17.52
2023-01-13T08:48:57.425Z,16.38
2023-01-13T08:51:38.055Z,17.45
2023-01-13T08:57:28.649Z,14.90
2023-01-13T09:00:09.231Z,15.98
2023-01-13T09:02:38.883Z,15.48
2023-01-13T09:08:05.007Z,17.85
2023-01-13T09:10:49.681Z,16.00
2023-01-13T09:15:55.324Z,23.60
2023-01-13T09:19:02.036Z,20.65
2023-01-13T09:30:10.253Z,13.30
2023-01-13T09:32:49.589Z,12.90
2023-01-13T09:35:18.701Z,17.55
2023-01-13T09:41:06.567Z,12.93
2023-01-13T09:43:39.276Z,14.40
2023-01-13T09:46:16.329Z,16.05
2023-01-13T09:48:43.331Z,18.95
2023-01-13T09:51:18.894Z,15.85
2023-01-13T09:53:53.541Z,15.38
2023-01-13T09:56:20.519Z,17.40
2023-01-13T09:58:48.418Z,16.63
2023-01-13T10:01:28.250Z,18.33
2023-01-13T10:03:55.556Z,19.40
2023-01-13T10:06:29.767Z,19.02
2023-01-13T10:08:58.458Z,22.83
2023-01-13T10:11:32.368Z,23.10
2023-01-13T10:14:02.380Z,21.67
2023-01-13T10:16:37.461Z,20.98
2023-01-13T10:19:12.451Z,25.88
2023-01-13T10:22:09.498Z,19.42
2023-01-13T10:24:55.443Z,16.55
2023-01-13T10:27:30.258Z,12.82
2023-01-13T10:30:19.567Z,12.32
2023-01-13T10:32:50.699Z,14.45
2023-01-13T10:38:41.471Z,13.32
2023-01-13T10:41:18.659Z,12.33
2023-01-13T10:43:57.382Z,11.25
2023-01-13T10:46:53.172Z,10.10
2023-01-13T10:49:53.559Z,10.52
2023-01-13T10:52:38.508Z,11.05
2023-01-13T10:55:36.002Z,16.27
2023-01-13T10:58:13.379Z,15.60
2023-01-13T11:00:40.738Z,13.05
2023-01-13T11:03:15.865Z,16.42
2023-01-13T11:05:53.747Z,15.35
2023-01-13T11:08:23.292Z,13.05
2023-01-13T11:10:53.838Z,15.43
2023-01-13T11:13:28.115Z,14.35
2023-01-13T11:16:00.900Z,14.70
2023-01-13T11:18:38.059Z,12.63
2023-01-13T11:21:12.093Z,12.73
2023-01-13T11:24:07.940Z,11.75
2023-01-13T11:26:41.438Z,13.02
2023-01-13T11:29:15.031Z,10.32
2023-01-13T11:31:47.514Z,10.73
2023-01-13T11:34:25.292Z,12.30
2023-01-13T11:37:02.059Z,11.75
2023-01-13T11:39:49.632Z,10.95
2023-01-13T11:42:23.905Z,12.73
2023-01-13T11:45:03.783Z,11.88
2023-01-13T11:47:32.598Z,10.90
2023-01-13T11:50:01.758Z,11.23
2023-01-13T11:52:47.516Z,13.48
2023-01-13T11:55:26.077Z,13.23
2023-01-13T11:58:12.050Z,14.35
2023-01-13T12:01:07.468Z,10.07
2023-01-13T12:03:42.071Z,12.25
2023-01-13T12:06:19.914Z,9.88
2023-01-13T12:09:08.330Z,9.82
2023-01-13T12:11:46.983Z,9.27
2023-01-13T12:14:29.262Z,9.80
2023-01-13T12:16:56.412Z,9.15
2023-01-13T12:19:25.808Z,10.85
2023-01-13T12:22:07.915Z,11.10
2023-01-13T12:24:43.162Z,18.40
2023-01-13T12:27:15.841Z,11.45
2023-01-13T12:29:45.074Z,11.18
2023-01-13T12:32:16.579Z,12.23
2023-01-13T12:34:53.521Z,10.77
2023-01-13T12:37:29.199Z,11.32
2023-01-13T12:40:19.304Z,10.60
2023-01-13T12:42:52.706Z,10.35
2023-01-13T12:45:26.199Z,12.35
2023-01-13T12:47:53.488Z,11.95
2023-01-13T12:50:41.717Z,11.45
2023-01-13T12:53:31.503Z,14.05
2023-01-13T12:56:30.175Z,10.70
2023-01-13T12:59:42.069Z,10.90
2023-01-13T13:02:35.936Z,11.20
2023-01-13T13:05:38.635Z,12.27
2023-01-13T13:08:14.581Z,11.13
2023-01-13T13:10:47.816Z,12.30
2023-01-13T13:13:41.144Z,13.05
2023-01-13T13:16:57.143Z,10.50
2023-01-13T13:19:47.195Z,10.75
2023-01-13T13:22:36.699Z,10.25
2023-01-13T13:28:07.861Z,9.93
2023-01-13T13:30:37.383Z,12.40
2023-01-13T13:33:20.804Z,14.23
2023-01-13T13:36:09.905Z,14.18
2023-01-13T13:38:58.431Z,17.45
2023-01-13T13:41:26.504Z,13.03
2023-01-13T13:43:53.556Z,17.17
2023-01-13T13:46:27.252Z,17.27
2023-01-13T13:48:55.223Z,18.98
2023-01-13T13:51:27.994Z,20.17
2023-01-13T13:53:55.750Z,17.23
2023-01-13T13:56:26.174Z,18.17
2023-01-13T13:58:56.294Z,17.80
2023-01-13T14:01:28.630Z,15.75
2023-01-13T14:04:11.390Z,16.08
2023-01-13T14:06:38.469Z,15.68
2023-01-13T14:09:16.730Z,18.73
2023-01-13T14:11:43.487Z,15.95
2023-01-13T14:14:14.293Z,16.70
2023-01-13T14:16:42.577Z,16.25
2023-01-13T14:19:26.533Z,16.95
2023-01-13T14:21:53.803Z,19.30
2023-01-13T14:24:20.892Z,17.17
2023-01-13T14:26:47.628Z,16.13
2023-01-13T14:29:19.315Z,16.45
2023-01-13T14:31:48.287Z,18.05
2023-01-13T14:34:32.095Z,16.35
2023-01-13T14:37:00.395Z,18.08
2023-01-13T14:39:35.545Z,20.58
2023-01-13T14:42:02.992Z,19.73
2023-01-13T14:44:32.202Z,19.52
2023-01-13T14:47:05.602Z,24.05
2023-01-13T14:49:38.559Z,22.42
2023-01-13T14:52:15.668Z,25.05
2023-01-13T14:57:33.103Z,27.60
2023-01-13T15:00:04.684Z,29.30
2023-01-13T15:02:40.908Z,23.33
2023-01-13T15:05:47.138Z,26.15
2023-01-13T15:08:34.798Z,27.10
2023-01-13T15:11:03.917Z,30.23
2023-01-13T15:13:39.654Z,25.75
2023-01-13T15:16:20.344Z,21.70
2023-01-13T15:18:49.004Z,30.73
2023-01-13T15:21:15.991Z,23.48
2023-01-13T15:23:43.621Z,22.80
2023-01-13T15:26:17.730Z,32.97
2023-01-13T15:28:44.682Z,24.05
2023-01-13T15:31:11.613Z,25.50
2023-01-13T15:33:38.571Z,28.85
2023-01-13T15:36:20.197Z,23.75
2023-01-13T15:38:47.204Z,26.50
2023-01-13T15:41:17.320Z,25.55
2023-01-13T15:43:52.559Z,25.90
2023-01-13T15:46:20.704Z,27.38
2023-01-13T15:48:49.055Z,26.05
2023-01-13T15:51:23.523Z,21.40
2023-01-13T15:53:50.890Z,23.45
2023-01-13T15:56:23.689Z,23.45
2023-01-13T15:58:50.983Z,23.45
2023-01-13T16:01:18.365Z,27.77
2023-01-13T16:03:45.729Z,24.90
2023-01-13T16:06:16.807Z,23.65
2023-01-13T16:08:45.505Z,22.25
2023-01-13T16:11:13.595Z,21.08
2023-01-13T16:13:40.945Z,25.15
2023-01-13T16:16:21.049Z,29.33
2023-01-13T16:18:48.819Z,23.50
2023-01-13T16:21:19.343Z,25.15
